sensor_id;sensor_type;location;lat;lon;timestamp;pressure;altitude;pressure_sealevel;temperature;humidity
2711;BME280;20721;47.402;8.550;2023-06-22T00:00:20;96033;;;23.02;61.39
2711;BME280;20721;47.402;8.550;2023-06-22T00:01:19;96028;;;22.91;61.34
2711;BME280;20721;47.402;8.550;2023-06-22T00:02:19;96026;;;22.89;61.52
2711;BME280;20721;47.402;8.550;2023-06-22T00:03:20;96023;;;22.90;61.69
2711;BME280;20721;47.402;8.550;2023-06-22T00:05:19;96024;;;22.87;61.73
2711;BME280;20721;47.402;8.550;2023-06-22T00:06:19;96025;;;22.86;61.73
2711;BME280;20721;47.402;8.550;2023-06-22T00:07:19;96022;;;22.84;61.81
2711;BME280;20721;47.402;8.550;2023-06-22T00:08:19;96022;;;22.82;61.74
2711;BME280;20721;47.402;8.550;2023-06-22T00:09:19;96021;;;22.80;61.82
2711;BME280;20721;47.402;8.550;2023-06-22T00:10:19;96022;;;22.84;61.76
2711;BME280;20721;47.402;8.550;2023-06-22T00:11:20;96020;;;22.85;61.61
2711;BME280;20721;47.402;8.550;2023-06-22T00:12:19;96022;;;22.83;61.10
2711;BME280;20721;47.402;8.550;2023-06-22T00:13:19;96018;;;22.80;61.21
2711;BME280;20721;47.402;8.550;2023-06-22T00:14:19;96022;;;22.78;61.43
2711;BME280;20721;47.402;8.550;2023-06-22T00:15:19;96025;;;22.76;61.63
2711;BME280;20721;47.402;8.550;2023-06-22T00:16:19;96023;;;22.74;61.67
2711;BME280;20721;47.402;8.550;2023-06-22T00:17:19;96022;;;22.73;61.67
2711;BME280;20721;47.402;8.550;2023-06-22T00:18:20;96023;;;22.71;61.72
2711;BME280;20721;47.402;8.550;2023-06-22T00:19:21;96021;;;22.70;61.79
2711;BME280;20721;47.402;8.550;2023-06-22T00:20:19;96019;;;22.72;61.61
2711;BME280;20721;47.402;8.550;2023-06-22T00:21:20;96020;;;22.68;61.59
2711;BME280;20721;47.402;8.550;2023-06-22T00:22:27;96024;;;22.69;61.68
2711;BME280;20721;47.402;8.550;2023-06-22T00:23:19;96022;;;22.71;61.60
2711;BME280;20721;47.402;8.550;2023-06-22T00:24:20;96025;;;22.74;61.49
2711;BME280;20721;47.402;8.550;2023-06-22T00:26:20;96020;;;22.70;61.42
2711;BME280;20721;47.402;8.550;2023-06-22T00:27:19;96024;;;22.68;61.60
2711;BME280;20721;47.402;8.550;2023-06-22T00:28:19;96016;;;22.70;61.46
2711;BME280;20721;47.402;8.550;2023-06-22T00:29:19;96015;;;22.73;61.39
2711;BME280;20721;47.402;8.550;2023-06-22T00:30:19;96014;;;22.77;61.33
2711;BME280;20721;47.402;8.550;2023-06-22T00:31:19;96012;;;22.79;61.21
2711;BME280;20721;47.402;8.550;2023-06-22T00:32:19;96013;;;22.81;61.25
2711;BME280;20721;47.402;8.550;2023-06-22T00:33:19;96012;;;22.82;61.18
2711;BME280;20721;47.402;8.550;2023-06-22T00:35:19;96016;;;22.78;61.14
2711;BME280;20721;47.402;8.550;2023-06-22T00:36:19;96017;;;22.75;61.28
2711;BME280;20721;47.402;8.550;2023-06-22T00:38:19;96017;;;22.74;61.29
2711;BME280;20721;47.402;8.550;2023-06-22T00:40:21;96020;;;22.66;61.29
2711;BME280;20721;47.402;8.550;2023-06-22T00:41:19;96019;;;22.60;61.54
2711;BME280;20721;47.402;8.550;2023-06-22T00:42:19;96019;;;22.59;61.61
2711;BME280;20721;47.402;8.550;2023-06-22T00:43:19;96020;;;22.60;61.41
2711;BME280;20721;47.402;8.550;2023-06-22T00:44:19;96018;;;22.61;61.45
2711;BME280;20721;47.402;8.550;2023-06-22T00:46:19;96021;;;22.62;61.58
2711;BME280;20721;47.402;8.550;2023-06-22T00:47:19;96022;;;22.64;61.55
2711;BME280;20721;47.402;8.550;2023-06-22T00:48:19;96026;;;22.66;61.45
2711;BME280;20721;47.402;8.550;2023-06-22T00:49:19;96026;;;22.69;61.38
2711;BME280;20721;47.402;8.550;2023-06-22T00:50:21;96032;;;22.68;61.42
2711;BME280;20721;47.402;8.550;2023-06-22T00:52:21;96030;;;22.71;61.38
2711;BME280;20721;47.402;8.550;2023-06-22T00:53:19;96027;;;22.74;61.24
2711;BME280;20721;47.402;8.550;2023-06-22T00:54:24;96029;;;22.76;61.15
2711;BME280;20721;47.402;8.550;2023-06-22T00:55:20;96028;;;22.78;61.07
2711;BME280;20721;47.402;8.550;2023-06-22T00:56:19;96025;;;22.81;61.02
2711;BME280;20721;47.402;8.550;2023-06-22T00:57:19;96028;;;22.83;60.80
2711;BME280;20721;47.402;8.550;2023-06-22T00:58:21;96028;;;22.85;60.76
2711;BME280;20721;47.402;8.550;2023-06-22T00:59:20;96028;;;22.87;60.64
2711;BME280;20721;47.402;8.550;2023-06-22T01:00:20;96032;;;22.89;60.63
2711;BME280;20721;47.402;8.550;2023-06-22T01:02:19;96031;;;22.90;60.57
2711;BME280;20721;47.402;8.550;2023-06-22T01:03:20;96031;;;22.91;60.51
2711;BME280;20721;47.402;8.550;2023-06-22T01:04:19;96034;;;22.90;60.45
2711;BME280;20721;47.402;8.550;2023-06-22T01:05:20;96033;;;22.89;60.53
2711;BME280;20721;47.402;8.550;2023-06-22T01:06:21;96036;;;22.87;60.65
2711;BME280;20721;47.402;8.550;2023-06-22T01:09:20;96035;;;22.76;60.82
2711;BME280;20721;47.402;8.550;2023-06-22T01:12:19;96045;;;22.59;61.35
2711;BME280;20721;47.402;8.550;2023-06-22T01:15:21;96043;;;22.40;62.10
2711;BME280;20721;47.402;8.550;2023-06-22T01:16:22;96046;;;22.37;62.22
2711;BME280;20721;47.402;8.550;2023-06-22T01:18:19;96058;;;22.34;62.38
2711;BME280;20721;47.402;8.550;2023-06-22T01:20:20;96067;;;22.27;62.50
2711;BME280;20721;47.402;8.550;2023-06-22T01:21:20;96070;;;22.26;62.51
2711;BME280;20721;47.402;8.550;2023-06-22T01:24:28;96073;;;22.31;62.55
2711;BME280;20721;47.402;8.550;2023-06-22T01:25:20;96074;;;22.32;62.51
2711;BME280;20721;47.402;8.550;2023-06-22T01:28:23;96074;;;22.24;62.90
2711;BME280;20721;47.402;8.550;2023-06-22T01:29:19;96078;;;22.22;63.03
2711;BME280;20721;47.402;8.550;2023-06-22T01:30:20;96077;;;22.23;63.01
2711;BME280;20721;47.402;8.550;2023-06-22T01:31:22;96079;;;22.25;62.86
2711;BME280;20721;47.402;8.550;2023-06-22T01:32:19;96080;;;22.28;62.83
2711;BME280;20721;47.402;8.550;2023-06-22T01:34:19;96080;;;22.26;62.83
2711;BME280;20721;47.402;8.550;2023-06-22T01:35:19;96079;;;22.25;62.84
2711;BME280;20721;47.402;8.550;2023-06-22T01:36:19;96077;;;22.26;62.85
2711;BME280;20721;47.402;8.550;2023-06-22T01:37:19;96074;;;22.28;62.75
2711;BME280;20721;47.402;8.550;2023-06-22T01:40:20;96074;;;22.31;62.71
2711;BME280;20721;47.402;8.550;2023-06-22T01:41:20;96069;;;22.34;62.57
2711;BME280;20721;47.402;8.550;2023-06-22T01:42:19;96069;;;22.39;62.49
2711;BME280;20721;47.402;8.550;2023-06-22T01:43:20;96067;;;22.43;62.31
2711;BME280;20721;47.402;8.550;2023-06-22T01:44:19;96061;;;22.46;62.15
2711;BME280;20721;47.402;8.550;2023-06-22T01:45:19;96058;;;22.49;62.12
2711;BME280;20721;47.402;8.550;2023-06-22T01:46:20;96055;;;22.33;62.63
2711;BME280;20721;47.402;8.550;2023-06-22T01:47:20;96053;;;22.16;63.16
2711;BME280;20721;47.402;8.550;2023-06-22T01:48:20;96055;;;22.10;63.35
2711;BME280;20721;47.402;8.550;2023-06-22T01:49:19;96054;;;22.05;63.61
2711;BME280;20721;47.402;8.550;2023-06-22T01:50:20;96056;;;21.98;63.92
2711;BME280;20721;47.402;8.550;2023-06-22T01:51:19;96062;;;21.86;64.23
2711;BME280;20721;47.402;8.550;2023-06-22T01:52:21;96066;;;21.73;64.76
2711;BME280;20721;47.402;8.550;2023-06-22T01:53:21;96067;;;21.74;64.83
2711;BME280;20721;47.402;8.550;2023-06-22T01:54:19;96067;;;21.77;64.78
2711;BME280;20721;47.402;8.550;2023-06-22T01:55:19;96068;;;21.79;64.75
2711;BME280;20721;47.402;8.550;2023-06-22T01:56:19;96065;;;21.83;64.58
2711;BME280;20721;47.402;8.550;2023-06-22T01:57:20;96063;;;21.86;64.45
2711;BME280;20721;47.402;8.550;2023-06-22T01:58:20;96060;;;21.92;64.24
2711;BME280;20721;47.402;8.550;2023-06-22T01:59:25;96060;;;21.99;64.06
2711;BME280;20721;47.402;8.550;2023-06-22T02:00:20;96063;;;22.04;63.87
2711;BME280;20721;47.402;8.550;2023-06-22T02:01:20;96061;;;22.03;63.84
2711;BME280;20721;47.402;8.550;2023-06-22T02:02:20;96063;;;21.99;63.98
2711;BME280;20721;47.402;8.550;2023-06-22T02:03:22;96064;;;22.00;63.92
2711;BME280;20721;47.402;8.550;2023-06-22T02:04:21;96068;;;22.03;63.89
2711;BME280;20721;47.402;8.550;2023-06-22T02:05:19;96068;;;21.98;64.03
2711;BME280;20721;47.402;8.550;2023-06-22T02:06:21;96069;;;21.91;64.16
2711;BME280;20721;47.402;8.550;2023-06-22T02:07:20;96064;;;21.81;64.58
2711;BME280;20721;47.402;8.550;2023-06-22T02:08:22;96062;;;21.73;64.84
2711;BME280;20721;47.402;8.550;2023-06-22T02:10:19;96062;;;21.76;64.89
2711;BME280;20721;47.402;8.550;2023-06-22T02:11:20;96065;;;21.79;64.77
2711;BME280;20721;47.402;8.550;2023-06-22T02:12:21;96066;;;21.69;65.02
2711;BME280;20721;47.402;8.550;2023-06-22T02:13:19;96073;;;21.68;65.04
2711;BME280;20721;47.402;8.550;2023-06-22T02:14:20;96079;;;21.67;65.14
2711;BME280;20721;47.402;8.550;2023-06-22T02:15:20;96077;;;21.65;65.18
2711;BME280;20721;47.402;8.550;2023-06-22T02:16:19;96072;;;21.61;65.30
2711;BME280;20721;47.402;8.550;2023-06-22T02:17:20;96068;;;21.60;65.30
2711;BME280;20721;47.402;8.550;2023-06-22T02:18:20;96067;;;21.59;65.44
2711;BME280;20721;47.402;8.550;2023-06-22T02:19:23;96067;;;21.61;65.40
2711;BME280;20721;47.402;8.550;2023-06-22T02:20:20;96059;;;21.62;65.27
2711;BME280;20721;47.402;8.550;2023-06-22T02:21:20;96062;;;21.57;65.60
2711;BME280;20721;47.402;8.550;2023-06-22T02:22:19;96066;;;21.58;65.40
2711;BME280;20721;47.402;8.550;2023-06-22T02:23:19;96067;;;21.55;65.54
2711;BME280;20721;47.402;8.550;2023-06-22T02:24:23;96066;;;21.54;65.67
2711;BME280;20721;47.402;8.550;2023-06-22T02:25:20;96068;;;21.59;65.55
2711;BME280;20721;47.402;8.550;2023-06-22T02:26:19;96065;;;21.61;65.48
2711;BME280;20721;47.402;8.550;2023-06-22T02:27:19;96057;;;21.65;65.27
2711;BME280;20721;47.402;8.550;2023-06-22T02:28:20;96052;;;21.63;65.36
2711;BME280;20721;47.402;8.550;2023-06-22T02:29:20;96048;;;21.59;65.53
2711;BME280;20721;47.402;8.550;2023-06-22T02:30:19;96048;;;21.55;65.72
2711;BME280;20721;47.402;8.550;2023-06-22T02:31:20;96047;;;21.45;65.98
2711;BME280;20721;47.402;8.550;2023-06-22T02:32:20;96041;;;21.54;65.73
2711;BME280;20721;47.402;8.550;2023-06-22T02:33:20;96041;;;21.58;65.50
2711;BME280;20721;47.402;8.550;2023-06-22T02:34:21;96040;;;21.63;65.36
2711;BME280;20721;47.402;8.550;2023-06-22T02:35:20;96043;;;21.69;65.12
2711;BME280;20721;47.402;8.550;2023-06-22T02:36:22;96044;;;21.68;65.11
2711;BME280;20721;47.402;8.550;2023-06-22T02:37:20;96048;;;21.71;65.13
2711;BME280;20721;47.402;8.550;2023-06-22T02:38:20;96048;;;21.76;64.97
2711;BME280;20721;47.402;8.550;2023-06-22T02:39:21;96049;;;21.79;64.85
2711;BME280;20721;47.402;8.550;2023-06-22T02:40:20;96055;;;21.82;64.82
2711;BME280;20721;47.402;8.550;2023-06-22T02:41:20;96059;;;21.86;64.67
2711;BME280;20721;47.402;8.550;2023-06-22T02:42:21;96057;;;21.88;64.69
2711;BME280;20721;47.402;8.550;2023-06-22T02:43:20;96057;;;21.89;64.59
2711;BME280;20721;47.402;8.550;2023-06-22T02:44:20;96054;;;21.92;64.56
2711;BME280;20721;47.402;8.550;2023-06-22T02:45:20;96054;;;21.95;64.32
2711;BME280;20721;47.402;8.550;2023-06-22T02:46:20;96054;;;21.99;64.18
2711;BME280;20721;47.402;8.550;2023-06-22T02:47:20;96055;;;22.03;64.12
2711;BME280;20721;47.402;8.550;2023-06-22T02:48:20;96057;;;22.07;63.95
2711;BME280;20721;47.402;8.550;2023-06-22T02:49:20;96056;;;22.10;63.89
2711;BME280;20721;47.402;8.550;2023-06-22T02:50:20;96053;;;22.11;63.82
2711;BME280;20721;47.402;8.550;2023-06-22T02:51:20;96054;;;22.12;63.84
2711;BME280;20721;47.402;8.550;2023-06-22T02:52:20;96049;;;22.05;63.97
2711;BME280;20721;47.402;8.550;2023-06-22T02:53:20;96050;;;21.98;64.25
2711;BME280;20721;47.402;8.550;2023-06-22T02:54:20;96046;;;21.97;64.27
2711;BME280;20721;47.402;8.550;2023-06-22T02:55:20;96047;;;21.95;64.28
2711;BME280;20721;47.402;8.550;2023-06-22T02:56:24;96042;;;21.94;64.30
2711;BME280;20721;47.402;8.550;2023-06-22T02:57:20;96041;;;21.93;64.39
2711;BME280;20721;47.402;8.550;2023-06-22T02:58:20;96044;;;21.94;64.28
2711;BME280;20721;47.402;8.550;2023-06-22T02:59:23;96041;;;21.95;64.30
2711;BME280;20721;47.402;8.550;2023-06-22T03:00:20;96038;;;21.92;64.39
2711;BME280;20721;47.402;8.550;2023-06-22T03:01:23;96038;;;21.91;64.40
2711;BME280;20721;47.402;8.550;2023-06-22T03:02:21;96041;;;21.92;64.35
2711;BME280;20721;47.402;8.550;2023-06-22T03:03:20;96042;;;21.95;64.27
2711;BME280;20721;47.402;8.550;2023-06-22T03:04:20;96042;;;21.99;64.20
2711;BME280;20721;47.402;8.550;2023-06-22T03:05:20;96044;;;22.04;64.14
2711;BME280;20721;47.402;8.550;2023-06-22T03:06:23;96046;;;22.06;64.08
2711;BME280;20721;47.402;8.550;2023-06-22T03:07:20;96045;;;22.07;63.99
2711;BME280;20721;47.402;8.550;2023-06-22T03:08:20;96043;;;22.04;63.96
2711;BME280;20721;47.402;8.550;2023-06-22T03:09:20;96043;;;22.00;64.11
2711;BME280;20721;47.402;8.550;2023-06-22T03:10:20;96045;;;21.97;64.24
2711;BME280;20721;47.402;8.550;2023-06-22T03:11:20;96041;;;21.96;64.29
2711;BME280;20721;47.402;8.550;2023-06-22T03:13:20;96043;;;21.95;64.31
2711;BME280;20721;47.402;8.550;2023-06-22T03:14:20;96046;;;21.96;64.33
2711;BME280;20721;47.402;8.550;2023-06-22T03:15:23;96047;;;21.95;64.39
2711;BME280;20721;47.402;8.550;2023-06-22T03:16:20;96047;;;21.91;64.52
2711;BME280;20721;47.402;8.550;2023-06-22T03:17:20;96047;;;21.90;64.64
2711;BME280;20721;47.402;8.550;2023-06-22T03:18:22;96045;;;21.91;64.56
2711;BME280;20721;47.402;8.550;2023-06-22T03:19:21;96046;;;21.88;64.63
2711;BME280;20721;47.402;8.550;2023-06-22T03:20:20;96042;;;21.89;64.56
2711;BME280;20721;47.402;8.550;2023-06-22T03:21:21;96043;;;21.90;64.65
2711;BME280;20721;47.402;8.550;2023-06-22T03:24:20;96043;;;21.92;64.51
2711;BME280;20721;47.402;8.550;2023-06-22T03:26:20;96043;;;21.93;64.43
2711;BME280;20721;47.402;8.550;2023-06-22T03:27:20;96041;;;21.94;64.43
2711;BME280;20721;47.402;8.550;2023-06-22T03:29:20;96038;;;21.96;64.30
2711;BME280;20721;47.402;8.550;2023-06-22T03:30:20;96041;;;21.99;64.21
2711;BME280;20721;47.402;8.550;2023-06-22T03:31:21;96039;;;22.02;64.22
2711;BME280;20721;47.402;8.550;2023-06-22T03:32:20;96036;;;22.04;64.09
2711;BME280;20721;47.402;8.550;2023-06-22T03:33:20;96038;;;22.05;64.05
2711;BME280;20721;47.402;8.550;2023-06-22T03:34:20;96037;;;22.06;63.97
2711;BME280;20721;47.402;8.550;2023-06-22T03:35:20;96038;;;22.05;63.91
2711;BME280;20721;47.402;8.550;2023-06-22T03:37:20;96036;;;22.06;63.99
2711;BME280;20721;47.402;8.550;2023-06-22T03:38:20;96032;;;22.07;63.92
2711;BME280;20721;47.402;8.550;2023-06-22T03:40:20;96032;;;22.09;63.84
2711;BME280;20721;47.402;8.550;2023-06-22T03:41:20;96035;;;22.10;63.81
2711;BME280;20721;47.402;8.550;2023-06-22T03:44:20;96035;;;22.09;63.75
2711;BME280;20721;47.402;8.550;2023-06-22T03:46:20;96033;;;22.10;63.79
2711;BME280;20721;47.402;8.550;2023-06-22T03:47:20;96029;;;22.09;63.82
2711;BME280;20721;47.402;8.550;2023-06-22T03:48:20;96033;;;22.08;63.86
2711;BME280;20721;47.402;8.550;2023-06-22T03:49:20;96036;;;22.07;63.87
2711;BME280;20721;47.402;8.550;2023-06-22T03:50:21;96031;;;22.05;64.04
2711;BME280;20721;47.402;8.550;2023-06-22T03:51:20;96031;;;22.04;64.02
2711;BME280;20721;47.402;8.550;2023-06-22T03:52:20;96027;;;22.03;64.08
2711;BME280;20721;47.402;8.550;2023-06-22T03:53:20;96020;;;22.02;64.08
2711;BME280;20721;47.402;8.550;2023-06-22T03:54:20;96019;;;21.99;64.07
2711;BME280;20721;47.402;8.550;2023-06-22T03:55:20;96021;;;21.98;64.20
2711;BME280;20721;47.402;8.550;2023-06-22T03:56:20;96016;;;21.96;64.26
2711;BME280;20721;47.402;8.550;2023-06-22T03:57:20;96014;;;21.97;64.23
2711;BME280;20721;47.402;8.550;2023-06-22T03:58:20;96010;;;21.98;64.19
2711;BME280;20721;47.402;8.550;2023-06-22T04:00:20;96007;;;21.99;64.23
2711;BME280;20721;47.402;8.550;2023-06-22T04:01:20;96006;;;21.96;64.28
2711;BME280;20721;47.402;8.550;2023-06-22T04:02:20;96009;;;21.94;64.31
2711;BME280;20721;47.402;8.550;2023-06-22T04:03:21;96012;;;21.92;64.48
2711;BME280;20721;47.402;8.550;2023-06-22T04:07:20;96011;;;21.93;64.47
2711;BME280;20721;47.402;8.550;2023-06-22T04:08:20;96012;;;21.94;64.43
2711;BME280;20721;47.402;8.550;2023-06-22T04:11:20;96011;;;21.95;64.38
2711;BME280;20721;47.402;8.550;2023-06-22T04:12:20;96010;;;21.96;64.35
2711;BME280;20721;47.402;8.550;2023-06-22T04:14:20;96016;;;21.97;64.42
2711;BME280;20721;47.402;8.550;2023-06-22T04:15:20;96016;;;21.98;64.41
2711;BME280;20721;47.402;8.550;2023-06-22T04:17:20;96020;;;21.99;64.38
2711;BME280;20721;47.402;8.550;2023-06-22T04:18:20;96018;;;22.02;64.31
2711;BME280;20721;47.402;8.550;2023-06-22T04:19:20;96022;;;22.04;64.20
2711;BME280;20721;47.402;8.550;2023-06-22T04:20:20;96023;;;22.07;64.18
2711;BME280;20721;47.402;8.550;2023-06-22T04:21:20;96018;;;22.08;64.11
2711;BME280;20721;47.402;8.550;2023-06-22T04:22:20;96017;;;22.09;64.10
2711;BME280;20721;47.402;8.550;2023-06-22T04:24:20;96015;;;22.08;64.06
2711;BME280;20721;47.402;8.550;2023-06-22T04:25:20;96012;;;22.09;64.12
2711;BME280;20721;47.402;8.550;2023-06-22T04:26:20;96016;;;22.11;64.13
2711;BME280;20721;47.402;8.550;2023-06-22T04:27:21;96010;;;22.14;64.07
2711;BME280;20721;47.402;8.550;2023-06-22T04:28:20;96008;;;22.16;64.02
2711;BME280;20721;47.402;8.550;2023-06-22T04:29:20;96007;;;22.17;63.98
2711;BME280;20721;47.402;8.550;2023-06-22T04:30:20;96009;;;22.19;63.95
2711;BME280;20721;47.402;8.550;2023-06-22T04:32:20;96012;;;22.20;63.93
2711;BME280;20721;47.402;8.550;2023-06-22T04:34:20;96014;;;22.22;63.97
2711;BME280;20721;47.402;8.550;2023-06-22T04:35:22;96013;;;22.23;63.92
2711;BME280;20721;47.402;8.550;2023-06-22T04:36:21;96012;;;22.24;63.93
2711;BME280;20721;47.402;8.550;2023-06-22T04:37:23;96012;;;22.25;63.98
2711;BME280;20721;47.402;8.550;2023-06-22T04:39:20;96006;;;22.27;63.96
2711;BME280;20721;47.402;8.550;2023-06-22T04:40:22;96003;;;22.29;63.88
2711;BME280;20721;47.402;8.550;2023-06-22T04:41:23;96000;;;22.33;63.86
2711;BME280;20721;47.402;8.550;2023-06-22T04:42:20;95999;;;22.34;63.80
2711;BME280;20721;47.402;8.550;2023-06-22T04:43:20;96001;;;22.38;63.69
2711;BME280;20721;47.402;8.550;2023-06-22T04:44:27;96008;;;22.41;63.57
2711;BME280;20721;47.402;8.550;2023-06-22T04:45:20;96009;;;22.44;63.51
2711;BME280;20721;47.402;8.550;2023-06-22T04:46:20;96008;;;22.49;63.51
2711;BME280;20721;47.402;8.550;2023-06-22T04:47:20;96007;;;22.54;63.30
2711;BME280;20721;47.402;8.550;2023-06-22T04:48:20;96006;;;22.57;63.25
2711;BME280;20721;47.402;8.550;2023-06-22T04:49:20;96004;;;22.60;63.23
2711;BME280;20721;47.402;8.550;2023-06-22T04:50:21;96004;;;22.63;63.08
2711;BME280;20721;47.402;8.550;2023-06-22T04:51:21;96007;;;22.65;62.84
2711;BME280;20721;47.402;8.550;2023-06-22T04:52:20;96003;;;22.69;62.79
2711;BME280;20721;47.402;8.550;2023-06-22T04:53:20;96003;;;22.72;62.73
2711;BME280;20721;47.402;8.550;2023-06-22T04:54:20;95997;;;22.75;62.76
2711;BME280;20721;47.402;8.550;2023-06-22T04:56:21;96002;;;22.78;62.41
2711;BME280;20721;47.402;8.550;2023-06-22T04:57:20;95999;;;22.81;62.40
2711;BME280;20721;47.402;8.550;2023-06-22T04:58:21;95998;;;22.84;62.44
2711;BME280;20721;47.402;8.550;2023-06-22T04:59:20;95998;;;22.80;62.07
2711;BME280;20721;47.402;8.550;2023-06-22T05:00:22;95998;;;22.78;62.17
2711;BME280;20721;47.402;8.550;2023-06-22T05:01:22;96002;;;22.77;62.28
2711;BME280;20721;47.402;8.550;2023-06-22T05:02:20;96004;;;22.75;62.45
2711;BME280;20721;47.402;8.550;2023-06-22T05:03:21;96006;;;22.74;62.34
2711;BME280;20721;47.402;8.550;2023-06-22T05:04:21;96008;;;22.75;62.20
2711;BME280;20721;47.402;8.550;2023-06-22T05:05:20;96004;;;22.78;62.32
2711;BME280;20721;47.402;8.550;2023-06-22T05:06:20;96005;;;22.84;62.22
2711;BME280;20721;47.402;8.550;2023-06-22T05:07:20;96006;;;22.79;61.98
2711;BME280;20721;47.402;8.550;2023-06-22T05:08:20;96006;;;22.83;61.98
2711;BME280;20721;47.402;8.550;2023-06-22T05:09:20;96001;;;22.86;61.89
2711;BME280;20721;47.402;8.550;2023-06-22T05:10:20;96002;;;22.91;61.99
2711;BME280;20721;47.402;8.550;2023-06-22T05:11:20;96004;;;22.97;61.67
2711;BME280;20721;47.402;8.550;2023-06-22T05:12:20;96001;;;22.99;61.53
2711;BME280;20721;47.402;8.550;2023-06-22T05:13:21;96001;;;23.06;61.59
2711;BME280;20721;47.402;8.550;2023-06-22T05:14:20;95997;;;23.13;61.40
2711;BME280;20721;47.402;8.550;2023-06-22T05:15:20;95996;;;23.19;61.38
2711;BME280;20721;47.402;8.550;2023-06-22T05:16:27;95998;;;23.23;61.02
2711;BME280;20721;47.402;8.550;2023-06-22T05:17:20;96000;;;23.24;60.88
2711;BME280;20721;47.402;8.550;2023-06-22T05:18:23;95999;;;23.23;60.51
2711;BME280;20721;47.402;8.550;2023-06-22T05:19:20;96001;;;23.17;60.71
2711;BME280;20721;47.402;8.550;2023-06-22T05:20:21;95999;;;23.12;60.88
2711;BME280;20721;47.402;8.550;2023-06-22T05:22:20;95995;;;23.19;61.08
2711;BME280;20721;47.402;8.550;2023-06-22T05:23:20;95994;;;23.27;61.03
2711;BME280;20721;47.402;8.550;2023-06-22T05:24:20;95997;;;23.38;60.65
2711;BME280;20721;47.402;8.550;2023-06-22T05:25:20;95997;;;23.47;60.61
2711;BME280;20721;47.402;8.550;2023-06-22T05:26:20;95991;;;23.56;60.46
2711;BME280;20721;47.402;8.550;2023-06-22T05:27:20;95993;;;23.64;60.04
2711;BME280;20721;47.402;8.550;2023-06-22T05:28:22;95987;;;23.73;59.73
2711;BME280;20721;47.402;8.550;2023-06-22T05:29:22;95989;;;23.80;59.49
2711;BME280;20721;47.402;8.550;2023-06-22T05:30:22;95990;;;23.87;59.20
2711;BME280;20721;47.402;8.550;2023-06-22T05:31:20;95986;;;23.94;58.89
2711;BME280;20721;47.402;8.550;2023-06-22T05:32:20;95990;;;23.99;58.74
2711;BME280;20721;47.402;8.550;2023-06-22T05:33:20;95987;;;24.04;58.62
2711;BME280;20721;47.402;8.550;2023-06-22T05:34:20;95986;;;24.09;58.47
2711;BME280;20721;47.402;8.550;2023-06-22T05:35:20;95988;;;24.14;58.26
2711;BME280;20721;47.402;8.550;2023-06-22T05:36:21;95994;;;24.19;58.14
2711;BME280;20721;47.402;8.550;2023-06-22T05:37:20;95992;;;24.22;58.10
2711;BME280;20721;47.402;8.550;2023-06-22T05:38:20;95999;;;24.27;57.85
2711;BME280;20721;47.402;8.550;2023-06-22T05:39:20;95998;;;24.34;57.89
2711;BME280;20721;47.402;8.550;2023-06-22T05:40:20;95997;;;24.39;57.66
2711;BME280;20721;47.402;8.550;2023-06-22T05:41:20;95994;;;24.43;57.40
2711;BME280;20721;47.402;8.550;2023-06-22T05:42:20;95992;;;24.47;57.20
2711;BME280;20721;47.402;8.550;2023-06-22T05:43:20;95995;;;24.52;57.16
2711;BME280;20721;47.402;8.550;2023-06-22T05:44:20;95994;;;24.58;56.97
2711;BME280;20721;47.402;8.550;2023-06-22T05:45:20;95998;;;24.64;56.88
2711;BME280;20721;47.402;8.550;2023-06-22T05:46:20;96000;;;24.69;56.87
2711;BME280;20721;47.402;8.550;2023-06-22T05:47:20;96000;;;24.75;56.68
2711;BME280;20721;47.402;8.550;2023-06-22T05:48:20;96002;;;24.80;56.45
2711;BME280;20721;47.402;8.550;2023-06-22T05:49:22;96003;;;24.85;56.52
2711;BME280;20721;47.402;8.550;2023-06-22T05:50:20;96002;;;24.91;56.30
2711;BME280;20721;47.402;8.550;2023-06-22T05:51:20;95999;;;24.97;56.09
2711;BME280;20721;47.402;8.550;2023-06-22T05:52:20;95996;;;25.02;56.10
2711;BME280;20721;47.402;8.550;2023-06-22T05:53:20;95995;;;25.05;56.00
2711;BME280;20721;47.402;8.550;2023-06-22T05:54:20;95993;;;25.11;55.58
2711;BME280;20721;47.402;8.550;2023-06-22T05:55:20;95993;;;25.16;55.43
2711;BME280;20721;47.402;8.550;2023-06-22T05:56:20;95989;;;25.20;55.37
2711;BME280;20721;47.402;8.550;2023-06-22T05:57:21;95987;;;25.25;55.35
2711;BME280;20721;47.402;8.550;2023-06-22T05:58:20;95986;;;25.31;55.15
2711;BME280;20721;47.402;8.550;2023-06-22T05:59:20;95990;;;25.36;55.05
2711;BME280;20721;47.402;8.550;2023-06-22T06:00:22;95991;;;25.39;54.90
2711;BME280;20721;47.402;8.550;2023-06-22T06:01:20;95994;;;25.44;54.97
2711;BME280;20721;47.402;8.550;2023-06-22T06:02:20;95993;;;25.48;54.91
2711;BME280;20721;47.402;8.550;2023-06-22T06:03:20;95996;;;25.55;54.51
2711;BME280;20721;47.402;8.550;2023-06-22T06:04:20;95998;;;25.59;54.32
2711;BME280;20721;47.402;8.550;2023-06-22T06:05:20;95993;;;25.55;54.34
2711;BME280;20721;47.402;8.550;2023-06-22T06:06:21;95994;;;25.59;54.38
2711;BME280;20721;47.402;8.550;2023-06-22T06:07:20;95997;;;25.65;54.40
2711;BME280;20721;47.402;8.550;2023-06-22T06:08:20;95999;;;25.71;54.39
2711;BME280;20721;47.402;8.550;2023-06-22T06:09:20;95998;;;25.74;53.88
2711;BME280;20721;47.402;8.550;2023-06-22T06:10:20;95998;;;25.80;54.01
2711;BME280;20721;47.402;8.550;2023-06-22T06:11:21;96004;;;25.87;54.06
2711;BME280;20721;47.402;8.550;2023-06-22T06:12:20;96004;;;25.91;53.45
2711;BME280;20721;47.402;8.550;2023-06-22T06:13:20;96003;;;25.94;53.42
2711;BME280;20721;47.402;8.550;2023-06-22T06:14:21;96003;;;25.99;53.38
2711;BME280;20721;47.402;8.550;2023-06-22T06:15:20;96004;;;26.03;53.46
2711;BME280;20721;47.402;8.550;2023-06-22T06:16:20;96002;;;26.11;53.30
2711;BME280;20721;47.402;8.550;2023-06-22T06:17:20;96001;;;26.21;53.03
2711;BME280;20721;47.402;8.550;2023-06-22T06:18:20;96000;;;26.26;52.71
2711;BME280;20721;47.402;8.550;2023-06-22T06:19:20;96003;;;26.29;52.45
2711;BME280;20721;47.402;8.550;2023-06-22T06:20:22;96004;;;26.33;52.91
2711;BME280;20721;47.402;8.550;2023-06-22T06:21:20;96002;;;26.41;52.51
2711;BME280;20721;47.402;8.550;2023-06-22T06:22:21;96003;;;26.49;52.54
2711;BME280;20721;47.402;8.550;2023-06-22T06:23:20;96004;;;26.55;52.30